Terminal Aerodrome Forecast
Issued by NWS

Home | Current Version | Previous Version | Graphics & Text | Print | Product List | Glossary On
Versions: 1 2 3 4 5 6 7 8 9 10 11 12 13 14 15 16 17
931
FTUS43 KICT 202320
TAFRSL
TAF
KRSL 202320Z 2100/2124 05013KT P6SM BKN250
     FM211200 04016G23KT P6SM BKN050=

USA.gov is the U.S. government's official web portal to all federal, state and local government web resources and services.